createdAt,value
2017-08-02T00:00:23.001Z,8.30
2017-08-02T00:01:20.296Z,6.40
2017-08-02T00:02:17.548Z,8.50
2017-08-02T00:03:14.814Z,7.70
2017-08-02T00:04:12.047Z,8.20
2017-08-02T00:05:09.302Z,6.20
2017-08-02T00:06:06.533Z,6.50
2017-08-02T00:07:03.813Z,4.90
2017-08-02T00:08:01.044Z,19.30
2017-08-02T00:08:58.296Z,8.70
2017-08-02T00:09:55.551Z,6.90
2017-08-02T00:10:52.809Z,6.20
2017-08-02T00:11:50.056Z,6.70
2017-08-02T00:12:47.460Z,5.60
2017-08-02T00:13:44.729Z,13.60
2017-08-02T00:14:42.014Z,5.70
2017-08-02T00:15:39.257Z,5.20
2017-08-02T00:16:36.520Z,5.00
2017-08-02T00:17:33.777Z,8.40
2017-08-02T00:18:31.047Z,11.60
2017-08-02T00:19:28.300Z,5.90
2017-08-02T00:20:25.560Z,8.90
2017-08-02T00:21:22.819Z,11.50
2017-08-02T00:22:20.056Z,6.50
2017-08-02T00:23:17.336Z,10.00
2017-08-02T00:24:14.601Z,5.90
2017-08-02T00:25:11.820Z,6.90
2017-08-02T00:26:09.108Z,7.40
2017-08-02T00:27:06.372Z,10.30
2017-08-02T00:28:03.688Z,8.40
2017-08-02T00:29:00.915Z,7.80
2017-08-02T00:29:58.200Z,7.70
2017-08-02T00:30:55.420Z,12.40
2017-08-02T00:31:52.673Z,10.20
2017-08-02T00:32:49.928Z,11.30
2017-08-02T00:33:47.207Z,8.30
2017-08-02T00:34:44.428Z,9.10
2017-08-02T00:35:41.668Z,5.60
2017-08-02T00:36:38.888Z,7.90
2017-08-02T00:37:36.226Z,6.80
2017-08-02T00:38:33.472Z,6.30
2017-08-02T00:39:30.725Z,14.30
2017-08-02T00:40:27.964Z,8.20
2017-08-02T00:41:25.212Z,9.80
2017-08-02T00:42:22.437Z,6.30
2017-08-02T00:43:19.708Z,6.70
2017-08-02T00:44:16.934Z,5.40
2017-08-02T00:45:14.270Z,7.90
2017-08-02T00:46:11.498Z,7.30
2017-08-02T00:47:08.755Z,12.70
2017-08-02T00:48:06.013Z,5.30
2017-08-02T00:49:03.280Z,5.40
2017-08-02T00:50:00.524Z,8.40
2017-08-02T00:50:57.788Z,7.90
2017-08-02T00:51:55.031Z,5.60
2017-08-02T00:52:52.301Z,5.00
2017-08-02T00:53:49.561Z,5.40
2017-08-02T00:54:46.816Z,4.80
2017-08-02T00:55:44.052Z,5.80
2017-08-02T00:56:41.318Z,5.10
2017-08-02T00:57:38.557Z,4.90
2017-08-02T00:58:35.839Z,7.70
2017-08-02T00:59:33.072Z,4.50
2017-08-02T01:00:30.343Z,4.50
2017-08-02T01:01:27.632Z,4.90
2017-08-02T01:02:24.888Z,4.40
2017-08-02T01:03:22.111Z,4.80
2017-08-02T01:04:19.396Z,4.50
2017-08-02T01:05:16.654Z,4.50
2017-08-02T01:06:13.917Z,4.40
2017-08-02T01:07:11.148Z,5.30
2017-08-02T01:08:08.399Z,4.60
2017-08-02T01:09:05.667Z,7.10
2017-08-02T01:10:02.926Z,4.80
2017-08-02T01:11:00.200Z,9.30
2017-08-02T01:11:57.561Z,5.00
2017-08-02T01:12:54.805Z,5.60
2017-08-02T01:13:52.107Z,4.50
2017-08-02T01:14:49.328Z,6.50
2017-08-02T01:15:46.607Z,5.10
2017-08-02T01:16:43.862Z,6.00
2017-08-02T01:17:41.125Z,6.20
2017-08-02T01:18:38.362Z,5.30
2017-08-02T01:19:35.653Z,7.50
2017-08-02T01:20:32.882Z,5.40
2017-08-02T01:21:30.137Z,10.70
2017-08-02T01:22:27.368Z,7.20
2017-08-02T01:23:24.621Z,6.60
2017-08-02T01:24:21.884Z,5.50
2017-08-02T01:25:19.164Z,5.70
2017-08-02T01:26:16.412Z,5.70
2017-08-02T01:27:13.746Z,12.10
2017-08-02T01:28:10.989Z,5.40
2017-08-02T01:29:08.261Z,8.90
2017-08-02T01:30:05.521Z,6.50
2017-08-02T01:31:02.784Z,8.00
2017-08-02T01:32:00.013Z,14.20
2017-08-02T01:32:57.285Z,5.00
2017-08-02T01:33:54.520Z,5.80
2017-08-02T01:34:51.788Z,5.80
2017-08-02T01:35:49.023Z,5.30
2017-08-02T01:36:46.293Z,4.60
2017-08-02T01:37:43.543Z,11.30
2017-08-02T01:38:40.804Z,5.50
2017-08-02T01:39:38.060Z,5.60
2017-08-02T01:40:35.320Z,6.40
2017-08-02T01:41:32.558Z,8.20
2017-08-02T01:42:29.813Z,5.80
2017-08-02T01:43:27.060Z,7.30
2017-08-02T01:44:24.327Z,4.70
2017-08-02T01:45:21.625Z,5.00
2017-08-02T01:46:18.880Z,6.20
2017-08-02T01:47:16.114Z,4.60
2017-08-02T01:48:13.392Z,5.60
2017-08-02T01:49:10.620Z,5.40
2017-08-02T01:50:07.905Z,8.20
2017-08-02T01:51:05.149Z,5.10
2017-08-02T01:52:02.402Z,9.60
2017-08-02T01:52:59.644Z,10.10
2017-08-02T01:53:56.912Z,5.00
2017-08-02T01:54:54.188Z,5.30
2017-08-02T01:55:51.453Z,5.30
2017-08-02T01:56:48.700Z,5.30
2017-08-02T01:57:45.969Z,4.70
2017-08-02T01:58:43.221Z,4.90
2017-08-02T01:59:40.467Z,13.60
2017-08-02T02:00:37.745Z,7.60
2017-08-02T02:01:35.032Z,7.80
2017-08-02T02:02:32.356Z,10.60
2017-08-02T02:03:29.625Z,8.50
2017-08-02T02:04:26.881Z,4.90
2017-08-02T02:05:24.155Z,4.80
2017-08-02T02:06:21.389Z,8.10
2017-08-02T02:07:18.651Z,8.80
2017-08-02T02:08:15.920Z,4.50
2017-08-02T02:09:13.192Z,12.20
2017-08-02T02:10:10.469Z,5.80
2017-08-02T02:11:07.725Z,5.00
2017-08-02T02:12:04.948Z,5.60
2017-08-02T02:13:02.208Z,5.40
2017-08-02T02:13:59.452Z,5.30
2017-08-02T02:14:56.720Z,8.90
2017-08-02T02:15:53.976Z,5.20
2017-08-02T02:16:51.233Z,5.20
2017-08-02T02:17:48.480Z,4.40
2017-08-02T02:18:45.735Z,6.60
2017-08-02T02:19:42.954Z,7.00
2017-08-02T02:20:40.238Z,8.10
2017-08-02T02:21:37.472Z,5.30
2017-08-02T02:22:34.748Z,10.00
2017-08-02T02:23:32.013Z,5.80
2017-08-02T02:24:29.269Z,7.80
2017-08-02T02:25:26.555Z,4.70
2017-08-02T02:26:23.816Z,8.40
2017-08-02T02:27:21.062Z,4.80
2017-08-02T02:28:18.328Z,5.60
2017-08-02T02:29:15.581Z,5.20
2017-08-02T02:30:12.843Z,9.20
2017-08-02T02:31:10.093Z,5.00
2017-08-02T02:32:07.356Z,5.00
2017-08-02T02:33:04.628Z,6.20
2017-08-02T02:34:01.913Z,7.90
2017-08-02T02:34:59.156Z,6.60
2017-08-02T02:35:56.425Z,9.60
2017-08-02T02:36:53.692Z,4.70
2017-08-02T02:37:50.972Z,9.80
2017-08-02T02:38:48.219Z,5.20
2017-08-02T02:39:45.484Z,7.50
2017-08-02T02:40:42.716Z,7.10
2017-08-02T02:41:39.996Z,10.30
2017-08-02T02:42:37.260Z,7.10
2017-08-02T02:43:34.501Z,5.00
2017-08-02T02:44:31.740Z,5.30
2017-08-02T02:45:29.006Z,5.50
2017-08-02T02:46:26.269Z,5.50
2017-08-02T02:47:23.525Z,6.70
2017-08-02T02:48:20.781Z,6.20
2017-08-02T02:49:18.038Z,7.90
2017-08-02T02:50:15.268Z,7.50
2017-08-02T02:51:12.553Z,4.50
2017-08-02T02:52:09.813Z,5.00
2017-08-02T02:53:07.076Z,6.90
2017-08-02T02:54:04.357Z,6.70
2017-08-02T02:55:01.628Z,7.50
2017-08-02T02:55:58.909Z,6.40
2017-08-02T02:56:56.203Z,7.80
2017-08-02T02:57:53.441Z,8.00
2017-08-02T02:58:50.720Z,6.60
2017-08-02T02:59:47.943Z,8.80
2017-08-02T03:00:45.216Z,5.70
2017-08-02T03:01:42.473Z,4.20
2017-08-02T03:02:39.727Z,5.60
2017-08-02T03:03:36.953Z,6.20
2017-08-02T03:04:34.228Z,9.70
2017-08-02T03:05:31.471Z,6.30
2017-08-02T03:06:28.746Z,7.20
2017-08-02T03:07:26.017Z,6.00
2017-08-02T03:08:23.276Z,6.20
2017-08-02T03:09:20.542Z,6.70
2017-08-02T03:10:17.800Z,5.00
2017-08-02T03:11:15.069Z,7.80
2017-08-02T03:12:12.416Z,4.90
2017-08-02T03:13:09.657Z,6.30
2017-08-02T03:14:06.920Z,11.80
2017-08-02T03:15:04.193Z,5.40
2017-08-02T03:16:01.578Z,5.10
2017-08-02T03:16:58.936Z,5.00
2017-08-02T03:17:56.286Z,4.00
2017-08-02T03:18:53.581Z,7.90
2017-08-02T03:19:50.876Z,5.30
2017-08-02T03:20:48.120Z,8.30
2017-08-02T03:21:45.425Z,5.90
2017-08-02T03:22:42.680Z,5.90
2017-08-02T03:23:39.941Z,5.90
2017-08-02T03:24:37.248Z,6.50
2017-08-02T03:25:34.504Z,5.90
2017-08-02T03:26:31.771Z,6.30
2017-08-02T03:27:29.047Z,5.50
2017-08-02T03:28:26.313Z,8.40
2017-08-02T03:29:23.566Z,4.60
2017-08-02T03:30:20.802Z,6.20
2017-08-02T03:31:18.078Z,7.70
2017-08-02T03:32:15.801Z,4.50
2017-08-02T03:33:13.177Z,5.80
2017-08-02T03:34:10.438Z,4.70
2017-08-02T03:35:07.703Z,5.40
2017-08-02T03:36:04.965Z,5.40
2017-08-02T03:37:02.237Z,7.20
2017-08-02T03:37:59.492Z,4.50
2017-08-02T03:38:56.777Z,7.00
2017-08-02T03:39:59.960Z,5.10
2017-08-02T03:40:57.328Z,6.20
2017-08-02T03:41:54.632Z,5.50
2017-08-02T03:42:51.911Z,4.50
2017-08-02T03:43:49.148Z,5.10
2017-08-02T03:44:46.421Z,8.70
2017-08-02T03:45:43.712Z,4.60
2017-08-02T03:46:40.968Z,8.30
2017-08-02T03:47:38.238Z,5.10
2017-08-02T03:48:35.549Z,4.40
2017-08-02T03:49:32.784Z,5.50
2017-08-02T03:50:30.062Z,5.00
2017-08-02T03:51:27.322Z,5.60
2017-08-02T03:52:24.576Z,6.40
2017-08-02T03:53:21.852Z,6.10
2017-08-02T03:54:19.155Z,5.10
2017-08-02T03:55:16.492Z,6.60
2017-08-02T03:56:13.796Z,5.90
2017-08-02T03:57:11.084Z,5.00
2017-08-02T03:58:08.379Z,6.20
2017-08-02T03:59:05.616Z,6.10
2017-08-02T04:00:02.917Z,6.00
2017-08-02T04:01:00.180Z,6.00
2017-08-02T04:01:57.420Z,7.70
2017-08-02T04:02:54.680Z,5.70
2017-08-02T04:03:51.946Z,7.40
2017-08-02T04:04:49.235Z,6.70
2017-08-02T04:05:46.550Z,5.30
2017-08-02T04:06:43.858Z,5.70
2017-08-02T04:07:41.117Z,4.80
2017-08-02T04:08:38.380Z,6.00
2017-08-02T04:09:35.717Z,8.30
2017-08-02T04:10:33.104Z,5.70
2017-08-02T04:11:30.372Z,6.30
2017-08-02T04:12:27.605Z,6.60
2017-08-02T04:13:24.921Z,7.00
2017-08-02T04:14:22.146Z,6.00
2017-08-02T04:15:19.858Z,5.30
2017-08-02T04:16:17.167Z,5.00
2017-08-02T04:17:14.417Z,5.40
2017-08-02T04:18:11.688Z,6.20
2017-08-02T04:19:08.950Z,5.40
2017-08-02T04:20:06.218Z,4.90
2017-08-02T04:21:03.482Z,9.90
2017-08-02T04:22:00.852Z,5.60
2017-08-02T04:22:58.200Z,5.50
2017-08-02T04:23:55.544Z,6.70
2017-08-02T04:24:52.811Z,5.10
2017-08-02T04:25:50.112Z,5.40
2017-08-02T04:26:47.428Z,5.50
2017-08-02T04:27:44.745Z,6.50
2017-08-02T04:28:42.028Z,5.30
2017-08-02T04:29:39.269Z,6.40
2017-08-02T04:30:36.537Z,8.80
2017-08-02T04:31:33.777Z,5.00
2017-08-02T04:32:31.044Z,5.40
2017-08-02T04:33:28.410Z,4.90
2017-08-02T04:34:25.685Z,5.20
2017-08-02T04:35:23.024Z,5.00
2017-08-02T04:36:20.344Z,5.10
2017-08-02T04:37:17.584Z,5.90
2017-08-02T04:38:14.872Z,5.20
2017-08-02T04:39:12.182Z,4.90
2017-08-02T04:40:09.565Z,5.20
2017-08-02T04:41:06.854Z,4.80
2017-08-02T04:42:04.127Z,5.00
2017-08-02T04:43:01.415Z,4.50
2017-08-02T04:43:58.761Z,4.90
2017-08-02T04:44:56.008Z,5.00
2017-08-02T04:45:53.256Z,5.40
2017-08-02T04:46:50.596Z,4.10
2017-08-02T04:47:47.891Z,4.90
2017-08-02T04:48:45.286Z,5.40
2017-08-02T04:49:42.597Z,5.70
2017-08-02T04:50:39.828Z,5.20
2017-08-02T04:51:37.133Z,5.00
2017-08-02T04:52:34.396Z,5.30
2017-08-02T04:53:31.673Z,4.90
2017-08-02T04:54:29.048Z,5.10
2017-08-02T04:55:26.404Z,4.80
2017-08-02T04:56:23.700Z,4.20
2017-08-02T04:57:21.158Z,5.80
2017-08-02T04:58:18.449Z,4.70
2017-08-02T04:59:15.754Z,5.60
2017-08-02T05:00:13.124Z,5.20
2017-08-02T05:01:10.438Z,5.70
2017-08-02T05:02:07.720Z,5.50
2017-08-02T05:03:05.064Z,4.40
2017-08-02T05:04:02.324Z,4.40
2017-08-02T05:04:59.629Z,5.40
2017-08-02T05:05:56.896Z,4.40
2017-08-02T05:06:54.189Z,4.70
2017-08-02T05:07:51.681Z,4.30
2017-08-02T05:08:48.972Z,5.30
2017-08-02T05:09:49.660Z,5.10
2017-08-02T05:10:46.910Z,4.90
2017-08-02T05:11:44.185Z,4.20
2017-08-02T05:12:41.465Z,4.60
2017-08-02T05:13:38.738Z,5.50
2017-08-02T05:14:36.000Z,5.40
2017-08-02T05:15:33.356Z,4.50
2017-08-02T05:16:30.663Z,5.80
2017-08-02T05:17:28.036Z,6.10
2017-08-02T05:18:25.266Z,5.00
2017-08-02T05:19:22.520Z,5.50
2017-08-02T05:20:19.797Z,5.20
2017-08-02T05:21:17.080Z,4.90
2017-08-02T05:22:14.341Z,5.50
2017-08-02T05:23:11.619Z,5.70
2017-08-02T05:24:08.891Z,6.80
2017-08-02T05:25:06.178Z,4.80
2017-08-02T05:26:03.437Z,6.40
2017-08-02T05:27:00.693Z,6.10
2017-08-02T05:27:57.926Z,5.10
2017-08-02T05:28:55.200Z,5.90
2017-08-02T05:29:52.485Z,6.20
2017-08-02T05:30:49.761Z,6.80
2017-08-02T05:31:47.006Z,5.40
2017-08-02T05:32:44.316Z,5.00
2017-08-02T05:33:41.596Z,5.60
2017-08-02T05:34:38.869Z,7.40
2017-08-02T05:35:36.189Z,4.80
2017-08-02T05:36:33.454Z,5.40
2017-08-02T05:37:30.712Z,5.80
2017-08-02T05:38:27.984Z,6.20
2017-08-02T05:39:25.239Z,4.80
2017-08-02T05:40:22.529Z,5.60
2017-08-02T05:41:19.806Z,6.30
2017-08-02T05:42:17.093Z,5.60
2017-08-02T05:43:14.336Z,9.50
2017-08-02T05:44:11.662Z,5.00
2017-08-02T05:45:08.921Z,5.60
2017-08-02T05:46:06.222Z,4.80
2017-08-02T05:47:03.544Z,6.10
2017-08-02T05:48:00.809Z,9.40
2017-08-02T05:48:58.073Z,5.30
2017-08-02T05:49:55.372Z,6.40
2017-08-02T05:50:52.670Z,6.00
2017-08-02T05:51:50.696Z,6.20
2017-08-02T05:52:47.957Z,6.10
2017-08-02T05:53:45.257Z,5.60
2017-08-02T05:54:42.541Z,6.50
2017-08-02T05:55:39.837Z,6.80
2017-08-02T05:56:37.372Z,6.50
2017-08-02T05:57:34.717Z,6.50
2017-08-02T05:58:31.973Z,6.20
2017-08-02T05:59:29.290Z,6.90
2017-08-02T06:00:26.565Z,6.60
2017-08-02T06:01:23.844Z,4.90
2017-08-02T06:02:21.095Z,5.60
2017-08-02T06:03:18.452Z,8.80
2017-08-02T06:04:15.732Z,7.40
2017-08-02T06:05:12.996Z,6.40
2017-08-02T06:06:10.248Z,6.30
2017-08-02T06:07:07.510Z,6.00
2017-08-02T06:08:04.772Z,6.50
2017-08-02T06:09:02.077Z,6.30
2017-08-02T06:09:59.369Z,6.80
2017-08-02T06:10:56.666Z,6.60
2017-08-02T06:11:53.922Z,6.30
2017-08-02T06:12:51.188Z,5.30
2017-08-02T06:13:48.456Z,6.10
2017-08-02T06:14:45.780Z,5.40
2017-08-02T06:15:43.037Z,5.90
2017-08-02T06:16:40.348Z,6.80
2017-08-02T06:17:37.652Z,7.40
2017-08-02T06:18:35.067Z,6.10
2017-08-02T06:19:32.320Z,5.60
2017-08-02T06:20:29.663Z,6.20
2017-08-02T06:21:26.916Z,6.20
2017-08-02T06:22:24.195Z,6.30
2017-08-02T06:23:21.523Z,5.90
2017-08-02T06:24:18.796Z,6.30
2017-08-02T06:25:16.069Z,5.90
2017-08-02T06:26:13.444Z,6.40
2017-08-02T06:27:10.714Z,6.00
2017-08-02T06:28:07.984Z,6.70
2017-08-02T06:29:05.253Z,7.30
2017-08-02T06:30:02.545Z,6.40
2017-08-02T06:30:59.826Z,5.60
2017-08-02T06:31:57.152Z,6.20
2017-08-02T06:32:54.395Z,6.30
2017-08-02T06:33:51.673Z,6.90
2017-08-02T06:34:48.940Z,5.90
2017-08-02T06:35:46.289Z,6.20
2017-08-02T06:36:43.624Z,10.50
2017-08-02T06:37:40.912Z,7.10
2017-08-02T06:38:38.184Z,7.00
2017-08-02T06:39:35.444Z,7.90
2017-08-02T06:40:32.696Z,8.20
2017-08-02T06:41:30.000Z,7.60
2017-08-02T06:42:27.261Z,8.20
2017-08-02T06:43:24.533Z,6.70
2017-08-02T06:44:21.776Z,8.10
2017-08-02T06:45:19.069Z,7.50
2017-08-02T06:46:16.324Z,8.00
2017-08-02T06:47:13.610Z,7.40
2017-08-02T06:48:10.875Z,8.10
2017-08-02T06:49:08.188Z,8.90
2017-08-02T06:50:05.452Z,7.10
2017-08-02T06:51:02.724Z,7.90
2017-08-02T06:51:59.990Z,7.50
2017-08-02T06:52:57.264Z,8.30
2017-08-02T06:53:54.500Z,9.80
2017-08-02T06:54:51.769Z,8.10
2017-08-02T06:55:48.992Z,12.90
2017-08-02T06:56:46.289Z,7.70
2017-08-02T06:57:43.545Z,8.50
2017-08-02T06:58:40.817Z,11.00
2017-08-02T06:59:38.102Z,22.60
2017-08-02T07:00:35.357Z,90.40
2017-08-02T07:01:32.600Z,40.20
2017-08-02T07:02:29.883Z,17.70
2017-08-02T07:03:27.101Z,14.40
2017-08-02T07:04:24.357Z,10.30
2017-08-02T07:05:21.587Z,11.70
2017-08-02T07:06:18.845Z,10.30
2017-08-02T07:07:16.094Z,13.30
2017-08-02T07:08:13.447Z,8.70
2017-08-02T07:09:10.706Z,12.00
2017-08-02T07:10:07.956Z,29.10
2017-08-02T07:11:05.187Z,20.90
2017-08-02T07:12:02.441Z,15.30
2017-08-02T07:12:59.705Z,16.90
2017-08-02T07:13:56.984Z,15.10
2017-08-02T07:14:54.213Z,10.90
2017-08-02T07:15:51.544Z,13.30
2017-08-02T07:16:48.789Z,11.10
2017-08-02T07:17:46.077Z,13.20
2017-08-02T07:18:43.317Z,10.60
2017-08-02T07:19:40.604Z,10.90
2017-08-02T07:20:37.828Z,13.20
2017-08-02T07:21:35.101Z,12.60
2017-08-02T07:22:32.370Z,12.90
2017-08-02T07:23:29.642Z,10.10
2017-08-02T07:24:26.884Z,11.00
2017-08-02T07:25:24.149Z,11.90
2017-08-02T07:26:21.397Z,11.10
2017-08-02T07:27:18.669Z,11.60
2017-08-02T07:28:15.925Z,12.50
2017-08-02T07:29:13.184Z,14.80
2017-08-02T07:30:10.485Z,15.00
2017-08-02T07:31:07.749Z,11.90
2017-08-02T07:32:05.004Z,13.10
2017-08-02T07:33:02.282Z,12.60
2017-08-02T07:33:59.532Z,15.00
2017-08-02T07:34:56.797Z,10.20
2017-08-02T07:35:54.041Z,12.40
2017-08-02T07:36:51.291Z,11.10
2017-08-02T07:37:48.554Z,13.80
2017-08-02T07:38:45.928Z,12.20
2017-08-02T07:39:43.181Z,16.10
2017-08-02T07:40:40.448Z,16.60
2017-08-02T07:41:37.684Z,12.60
2017-08-02T07:42:34.974Z,13.50
2017-08-02T07:43:32.257Z,15.90
2017-08-02T07:44:29.525Z,13.30
2017-08-02T07:45:26.813Z,15.40
2017-08-02T07:46:24.097Z,15.40
2017-08-02T07:47:26.421Z,17.90
2017-08-02T07:48:23.736Z,14.10
2017-08-02T07:49:21.002Z,12.20
2017-08-02T07:50:18.285Z,12.10
2017-08-02T07:51:15.552Z,15.30
2017-08-02T07:52:12.808Z,15.30
2017-08-02T07:53:10.078Z,14.80
2017-08-02T07:54:07.381Z,22.90
2017-08-02T07:55:04.627Z,17.40
2017-08-02T07:56:01.887Z,15.00
2017-08-02T07:56:59.132Z,13.50
2017-08-02T07:57:56.387Z,20.50
2017-08-02T07:58:53.631Z,15.40
2017-08-02T07:59:50.888Z,15.20
2017-08-02T08:00:48.136Z,12.20
2017-08-02T08:01:45.405Z,13.50
2017-08-02T08:02:42.661Z,15.00
2017-08-02T08:03:39.936Z,14.50
2017-08-02T08:04:37.201Z,20.00
2017-08-02T08:05:34.616Z,15.60
2017-08-02T08:06:31.910Z,16.90
2017-08-02T08:07:29.200Z,14.90
2017-08-02T08:08:26.481Z,19.60
2017-08-02T08:09:23.754Z,19.50
2017-08-02T08:10:21.025Z,15.40
2017-08-02T08:11:18.305Z,15.30
2017-08-02T08:12:15.640Z,15.20
2017-08-02T08:13:12.923Z,16.90
2017-08-02T08:14:10.188Z,18.10
2017-08-02T08:15:07.449Z,17.40
2017-08-02T08:16:04.680Z,13.90
2017-08-02T08:17:01.945Z,14.30
2017-08-02T08:17:59.190Z,28.00
2017-08-02T08:18:56.475Z,22.10
2017-08-02T08:19:53.756Z,14.00
2017-08-02T08:20:51.060Z,17.80
2017-08-02T08:21:48.296Z,14.50
2017-08-02T08:22:45.573Z,18.40
2017-08-02T08:23:42.813Z,17.60
2017-08-02T08:24:40.110Z,15.40
2017-08-02T08:25:37.346Z,16.70
2017-08-02T08:26:34.592Z,18.80
2017-08-02T08:27:31.841Z,21.50
2017-08-02T08:28:29.134Z,17.70
2017-08-02T08:29:26.437Z,20.80
2017-08-02T08:30:23.692Z,13.70
2017-08-02T08:31:20.942Z,17.30
2017-08-02T08:32:18.257Z,18.70
2017-08-02T08:33:15.602Z,17.10
2017-08-02T08:34:12.944Z,18.80
2017-08-02T08:35:10.260Z,19.00
2017-08-02T08:36:07.542Z,18.40
2017-08-02T08:37:04.782Z,16.90
2017-08-02T08:38:02.053Z,21.50
2017-08-02T08:38:59.289Z,17.30
2017-08-02T08:39:56.565Z,20.20
2017-08-02T08:40:53.875Z,19.00
2017-08-02T08:41:51.148Z,16.70
2017-08-02T08:42:48.421Z,17.20
2017-08-02T08:43:45.684Z,17.90
2017-08-02T08:44:42.961Z,17.50
2017-08-02T08:45:40.241Z,18.10
2017-08-02T08:46:37.482Z,16.80
2017-08-02T08:47:34.728Z,15.90
2017-08-02T08:48:31.979Z,12.70
2017-08-02T08:49:29.284Z,18.70
2017-08-02T08:50:26.523Z,13.10
2017-08-02T08:51:23.794Z,16.90
2017-08-02T08:52:21.054Z,14.30
2017-08-02T08:53:18.420Z,14.80
2017-08-02T08:54:15.661Z,14.50
2017-08-02T08:55:12.947Z,11.70
2017-08-02T08:56:10.205Z,13.70
2017-08-02T08:57:07.478Z,18.10
2017-08-02T08:58:04.731Z,18.60
2017-08-02T08:59:02.020Z,12.20
2017-08-02T08:59:59.273Z,12.70
2017-08-02T09:00:56.549Z,13.90
2017-08-02T09:01:53.797Z,14.50
2017-08-02T09:02:51.045Z,11.90
2017-08-02T09:03:48.313Z,15.50
2017-08-02T09:04:45.570Z,13.70
2017-08-02T09:05:42.809Z,11.30
2017-08-02T09:06:40.072Z,14.20
2017-08-02T09:07:37.322Z,11.40
2017-08-02T09:08:34.576Z,11.40
2017-08-02T09:09:31.828Z,11.10
2017-08-02T09:10:29.087Z,10.30
2017-08-02T09:11:26.326Z,11.90
2017-08-02T09:12:23.588Z,12.20
2017-08-02T09:13:20.813Z,8.00
2017-08-02T09:14:18.155Z,8.30
2017-08-02T09:15:15.400Z,9.20
2017-08-02T09:16:12.663Z,11.10
2017-08-02T09:17:09.907Z,9.80
2017-08-02T09:18:07.164Z,9.20
2017-08-02T09:19:04.392Z,8.70
2017-08-02T09:20:01.652Z,7.80
2017-08-02T09:20:58.908Z,10.90
2017-08-02T09:21:56.169Z,8.10
2017-08-02T09:22:53.433Z,11.00
2017-08-02T09:23:51.293Z,7.60
2017-08-02T09:24:48.557Z,6.70
2017-08-02T09:25:45.824Z,9.40
2017-08-02T09:26:43.053Z,8.30
2017-08-02T09:27:40.344Z,6.40
2017-08-02T09:28:37.598Z,8.90
2017-08-02T09:29:34.864Z,8.30
2017-08-02T09:30:32.169Z,7.30
2017-08-02T09:31:29.480Z,9.00
2017-08-02T09:32:26.761Z,6.90
2017-08-02T09:33:24.056Z,6.40
2017-08-02T09:34:21.275Z,6.00
2017-08-02T09:35:18.525Z,10.90
2017-08-02T09:36:15.768Z,8.70
2017-08-02T09:37:13.025Z,7.10
2017-08-02T09:38:10.236Z,9.20
2017-08-02T09:39:07.502Z,8.70
2017-08-02T09:40:04.744Z,6.30
2017-08-02T09:41:02.028Z,5.90
2017-08-02T09:41:59.260Z,5.90
2017-08-02T09:42:56.549Z,7.20
2017-08-02T09:43:53.824Z,5.30
2017-08-02T09:44:51.112Z,6.10
2017-08-02T09:45:48.372Z,6.10
2017-08-02T09:46:45.631Z,9.40
2017-08-02T09:47:42.877Z,7.50
2017-08-02T09:48:40.144Z,8.20
2017-08-02T09:49:37.395Z,7.00
2017-08-02T09:50:34.666Z,7.20
2017-08-02T09:51:31.924Z,7.10
2017-08-02T09:52:29.188Z,9.80
2017-08-02T09:53:26.420Z,5.50
2017-08-02T09:54:23.680Z,10.50
2017-08-02T09:55:20.921Z,6.10
2017-08-02T09:56:18.217Z,6.80
2017-08-02T09:57:15.461Z,7.10
2017-08-02T09:58:12.721Z,6.20
2017-08-02T09:59:09.978Z,5.30
2017-08-02T10:00:07.271Z,6.10
2017-08-02T10:01:04.488Z,5.30
2017-08-02T10:02:01.780Z,5.80
2017-08-02T10:02:59.012Z,9.60
2017-08-02T10:03:56.259Z,6.20
2017-08-02T10:04:53.480Z,13.10
2017-08-02T10:05:50.732Z,9.20
2017-08-02T10:06:48.005Z,7.60
2017-08-02T10:07:45.264Z,6.60
2017-08-02T10:08:42.531Z,7.40
2017-08-02T10:09:39.817Z,7.30
2017-08-02T10:10:37.055Z,7.80
2017-08-02T10:11:34.336Z,5.60
2017-08-02T10:12:31.593Z,5.70
2017-08-02T10:13:28.956Z,14.80
2017-08-02T10:14:26.199Z,6.80
2017-08-02T10:15:23.440Z,9.30
2017-08-02T10:16:20.652Z,5.00
2017-08-02T10:17:17.925Z,8.60
2017-08-02T10:18:17.213Z,8.00
2017-08-02T10:19:14.500Z,5.30
2017-08-02T10:20:11.716Z,6.80
2017-08-02T10:21:08.976Z,5.50
2017-08-02T10:22:06.234Z,4.70
2017-08-02T10:23:03.506Z,4.40
2017-08-02T10:24:00.768Z,7.30
2017-08-02T10:24:58.052Z,6.10
2017-08-02T10:25:55.320Z,7.00
2017-08-02T10:26:52.634Z,5.10
2017-08-02T10:27:49.880Z,5.00
2017-08-02T10:28:47.147Z,8.50
2017-08-02T10:29:44.376Z,6.60
2017-08-02T10:30:41.620Z,6.20
2017-08-02T10:31:38.872Z,4.40
2017-08-02T10:32:36.165Z,4.50
2017-08-02T10:33:33.396Z,5.60
2017-08-02T10:34:30.662Z,5.60
2017-08-02T10:35:27.906Z,9.30
2017-08-02T10:36:25.184Z,4.60
2017-08-02T10:37:22.452Z,4.70
2017-08-02T10:38:19.723Z,7.20
2017-08-02T10:39:16.972Z,6.00
2017-08-02T10:40:14.244Z,9.10
2017-08-02T10:41:11.474Z,8.50
2017-08-02T10:42:08.796Z,4.40
2017-08-02T10:43:06.040Z,5.90
2017-08-02T10:44:03.312Z,6.20
2017-08-02T10:45:00.541Z,4.60
2017-08-02T10:45:57.812Z,4.70
2017-08-02T10:46:55.046Z,4.30
2017-08-02T10:47:52.329Z,7.80
2017-08-02T10:48:49.582Z,7.10
2017-08-02T10:49:46.839Z,6.10
2017-08-02T10:50:44.081Z,8.10
2017-08-02T10:51:41.350Z,4.20
2017-08-02T10:52:38.603Z,3.70
2017-08-02T10:53:35.874Z,5.30
2017-08-02T10:54:33.158Z,8.70
2017-08-02T10:55:30.440Z,5.60
2017-08-02T10:56:27.797Z,5.60
2017-08-02T10:57:25.128Z,4.60
2017-08-02T10:58:22.377Z,3.70
2017-08-02T10:59:19.656Z,4.40
2017-08-02T11:00:16.895Z,4.80
2017-08-02T11:01:14.172Z,6.30
2017-08-02T11:02:11.383Z,3.80
2017-08-02T11:03:08.653Z,5.20
2017-08-02T11:04:05.906Z,4.50
2017-08-02T11:05:03.709Z,6.20
2017-08-02T11:06:01.015Z,4.30
2017-08-02T11:06:58.388Z,4.40
2017-08-02T11:07:55.647Z,9.90
2017-08-02T11:08:52.998Z,4.60
2017-08-02T11:09:50.242Z,7.30
2017-08-02T11:10:47.504Z,4.30
2017-08-02T11:11:44.728Z,6.10
2017-08-02T11:12:42.265Z,4.80
2017-08-02T11:13:39.500Z,4.10
2017-08-02T11:14:36.753Z,3.90
2017-08-02T11:15:34.034Z,3.40
2017-08-02T11:16:31.294Z,4.20
2017-08-02T11:17:28.529Z,5.10
2017-08-02T11:18:25.820Z,3.80
2017-08-02T11:19:23.057Z,10.20
2017-08-02T11:20:20.316Z,4.20
2017-08-02T11:21:17.575Z,4.30
2017-08-02T11:22:14.849Z,7.10
2017-08-02T11:23:12.135Z,4.80
2017-08-02T11:24:09.410Z,4.30
2017-08-02T11:25:06.640Z,4.80
2017-08-02T11:26:03.897Z,4.00
2017-08-02T11:27:01.165Z,3.60
2017-08-02T11:27:58.485Z,4.60
2017-08-02T11:28:55.874Z,5.50
2017-08-02T11:29:53.147Z,4.60
2017-08-02T11:30:50.381Z,3.50
2017-08-02T11:31:47.625Z,6.90
2017-08-02T11:32:44.870Z,4.80
2017-08-02T11:33:42.156Z,4.10
2017-08-02T11:34:39.400Z,7.90
2017-08-02T11:35:36.688Z,5.60
2017-08-02T11:36:33.941Z,3.70
2017-08-02T11:37:31.192Z,5.10
2017-08-02T11:38:28.447Z,4.10
2017-08-02T11:39:25.733Z,4.30
2017-08-02T11:40:22.982Z,4.50
2017-08-02T11:41:20.220Z,4.40
2017-08-02T11:42:17.440Z,3.80
2017-08-02T11:43:14.710Z,3.20
2017-08-02T11:44:11.972Z,4.20
2017-08-02T11:45:09.264Z,3.60
2017-08-02T11:46:06.500Z,3.80
2017-08-02T11:47:03.892Z,3.70
2017-08-02T11:48:01.141Z,3.60
2017-08-02T11:48:58.404Z,4.70
2017-08-02T11:49:55.641Z,4.00
2017-08-02T11:50:52.897Z,3.00
2017-08-02T11:51:50.141Z,5.40
2017-08-02T11:52:47.397Z,3.80
2017-08-02T11:53:44.632Z,4.90
2017-08-02T11:54:41.906Z,6.00
2017-08-02T11:55:39.136Z,7.30
2017-08-02T11:56:36.396Z,4.90
2017-08-02T11:57:33.640Z,3.90
2017-08-02T11:58:30.888Z,3.80
2017-08-02T11:59:28.152Z,3.50
2017-08-02T12:00:25.403Z,5.00
2017-08-02T12:01:22.641Z,5.60
2017-08-02T12:02:19.908Z,4.00
2017-08-02T12:03:17.136Z,3.40
2017-08-02T12:04:14.412Z,3.80
2017-08-02T12:05:12.087Z,3.80
2017-08-02T12:06:09.393Z,3.70
2017-08-02T12:07:06.633Z,3.80
2017-08-02T12:08:03.967Z,5.00
2017-08-02T12:09:01.208Z,3.80
2017-08-02T12:09:58.499Z,5.20
2017-08-02T12:10:55.736Z,3.80
2017-08-02T12:11:52.992Z,4.00
2017-08-02T12:12:50.220Z,4.90
2017-08-02T12:13:47.481Z,3.70
2017-08-02T12:14:44.736Z,10.50
2017-08-02T12:15:41.987Z,6.80
2017-08-02T12:16:39.226Z,5.10
2017-08-02T12:17:36.472Z,3.70
2017-08-02T12:18:33.701Z,3.10
2017-08-02T12:19:30.976Z,8.00
2017-08-02T12:20:28.261Z,3.80
2017-08-02T12:21:25.516Z,3.90
2017-08-02T12:22:22.784Z,3.60
2017-08-02T12:23:22.103Z,4.90
2017-08-02T12:24:19.329Z,4.20
2017-08-02T12:25:16.620Z,4.30
2017-08-02T12:26:13.867Z,3.80
2017-08-02T12:27:11.137Z,4.30
2017-08-02T12:28:08.397Z,5.90
2017-08-02T12:29:05.645Z,3.60
2017-08-02T12:30:02.886Z,6.50
2017-08-02T12:31:00.156Z,4.40
2017-08-02T12:31:57.397Z,4.10
2017-08-02T12:32:54.645Z,4.20
2017-08-02T12:33:51.889Z,3.80
2017-08-02T12:34:49.140Z,4.20
2017-08-02T12:35:46.475Z,6.50
2017-08-02T12:36:43.728Z,7.60